| time (UTC) | temp C | wind direction | speed KPH | gust KPH | rain 1hr cm | rain 24hr cm | rain mn cm | humidity % | barometer mb |
| 20260906020704 | 13 | 115 | 3.2 | 4.8 | 0.00 | 0.05 | 0.00 | 93 | 993.8 |
| 20260906013705 | 13 | 120 | 1.6 | 3.2 | 0.00 | 0.05 | 0.00 | 92 | 993.7 |
| 20260906010703 | 13 | 79 | 3.2 | 3.2 | 0.00 | 0.05 | 0.00 | 92 | 993.6 |
| 20260906003659 | 13 | 109 | 0.0 | 1.6 | 0.00 | 0.05 | 0.00 | 92 | 993.5 |
| 20260906000658 | 13 | 95 | 1.6 | 3.2 | 0.00 | 0.05 | 0.00 | 92 | 993.5 |
| 20260905233656 | 14 | 89 | 0.0 | 0.0 | 0.00 | 0.05 | 0.00 | 91 | 993.6 |
| 20260905230654 | 14 | 108 | 0.0 | 0.0 | 0.00 | 0.05 | 0.00 | 91 | 993.6 |
| 20260905223653 | 14 | 126 | 1.6 | 3.2 | 0.00 | 0.05 | 0.05 | 91 | 993.2 |
| 20260905220651 | 14 | 93 | 1.6 | 3.2 | 0.00 | 0.05 | 0.05 | 90 | 993.2 |
| 20260905213649 | 15 | 89 | 1.6 | 3.2 | 0.00 | 0.05 | 0.05 | 89 | 993.0 |
| 20260905210647 | 15 | 58 | 1.6 | 1.6 | 0.00 | 0.05 | 0.05 | 87 | 993.0 |
| 20260905203650 | 15 | 80 | 1.6 | 3.2 | 0.00 | 0.05 | 0.05 | 88 | 992.7 |
| 20260905200648 | 15 | 75 | 0.0 | 3.2 | 0.00 | 0.05 | 0.05 | 90 | 992.6 |
| 20260905193646 | 15 | 87 | 0.0 | 1.6 | 0.00 | 0.05 | 0.05 | 89 | 992.2 |
| 20260905190641 | 15 | 37 | 0.0 | 1.6 | 0.00 | 0.05 | 0.05 | 88 | 992.2 |
| 20260905183639 | 16 | 66 | 3.2 | 6.4 | 0.00 | 0.05 | 0.05 | 85 | 992.1 |
| 20260905180641 | 17 | 75 | 1.6 | 3.2 | 0.00 | 0.05 | 0.05 | 83 | 991.7 |
| 20260905173636 | 17 | 117 | 3.2 | 3.2 | 0.00 | 0.05 | 0.05 | 81 | 991.6 |
| 20260905170634 | 17 | 145 | 3.2 | 3.2 | 0.00 | 0.05 | 0.05 | 82 | 991.5 |
| 20260905163632 | 18 | 94 | 1.6 | 1.6 | 0.00 | 0.05 | 0.05 | 74 | 991.6 |
| 20260905160630 | 18 | 63 | 0.0 | 0.0 | 0.00 | 0.05 | 0.05 | 76 | 991.4 |
| 20260905153629 | 19 | 44 | 0.0 | 1.6 | 0.00 | 0.05 | 0.05 | 77 | 991.2 |
| 20260905150631 | 19 | 44 | 0.0 | 0.0 | 0.00 | 0.05 | 0.05 | 77 | 991.1 |
| 20260905143625 | 18 | 18 | 0.0 | 0.0 | 0.00 | 0.05 | 0.05 | 79 | 990.9 |
| 20260905140627 | 18 | 322 | 0.0 | 3.2 | 0.03 | 0.05 | 0.05 | 79 | 991.4 |
| 20260905133622 | 17 | 343 | 8.0 | 11.3 | 0.03 | 0.05 | 0.05 | 84 | 991.5 |
| 20260905130624 | 18 | 304 | 1.6 | 8.0 | 0.00 | 0.03 | 0.03 | 81 | 991.2 |
| 20260905123619 | 18 | 100 | 0.0 | 1.6 | 0.00 | 0.03 | 0.03 | 83 | 990.7 |
| 20260905120619 | 17 | 141 | 1.6 | 3.2 | 0.03 | 0.03 | 0.03 | 84 | 990.7 |
| 20260905113624 | 17 | 143 | 0.0 | 1.6 | 0.03 | 0.03 | 0.03 | 83 | 991.5 |
| 20260905110615 | 20 | 303 | 16.1 | 24.1 | 0.00 | 0.00 | 0.00 | 67 | 991.7 |
| 20260905103614 | 21 | 302 | 9.7 | 17.7 | 0.00 | 0.00 | 0.00 | 65 | 991.6 |
| 20260905100610 | 21 | 305 | 4.8 | 11.3 | 0.00 | 0.00 | 0.00 | 65 | 991.1 |
| 20260905093610 | 21 | 302 | 9.7 | 12.9 | 0.00 | 0.00 | 0.00 | 62 | 990.8 |
| 20260905090609 | 22 | 330 | 4.8 | 9.7 | 0.00 | 0.00 | 0.00 | 61 | 989.9 |
| 20260905083609 | 22 | 278 | 11.3 | 20.9 | 0.00 | 0.00 | 0.00 | 58 | 990.0 |
| 20260905080605 | 22 | 308 | 16.1 | 20.9 | 0.00 | 0.00 | 0.00 | 58 | 989.5 |
| 20260905073603 | 22 | 248 | 9.7 | 16.1 | 0.00 | 0.00 | 0.00 | 58 | 989.1 |
| 20260905070602 | 21 | 213 | 3.2 | 8.0 | 0.00 | 0.00 | 0.00 | 64 | 988.9 |
| 20260905063600 | 21 | 234 | 8.0 | 12.9 | 0.00 | 0.00 | 0.00 | 65 | 988.9 |
| 20260905060601 | 22 | 216 | 9.7 | 14.5 | 0.00 | 0.00 | 0.00 | 57 | 988.6 |
| 20260905053557 | 22 | 165 | 410.4 | 410.4 | 0.00 | 0.00 | 0.00 | 60 | 988.7 |
| 20260905050553 | -17 | 767 | 410.4 | 410.4 | 0.00 | 0.00 | 0.00 | 988.5 | |
| 20260905043555 | -17 | 767 | 410.4 | 410.4 | 0.00 | 0.00 | 0.00 | 988.6 | |
| 20260905040552 | -17 | 767 | 410.4 | 410.4 | 0.00 | 0.00 | 0.00 | 988.5 | |
| 20260905033550 | 18 | 101 | 3.2 | 6.4 | 0.00 | 0.00 | 0.00 | 68 | 988.2 |
| 20260905030548 | 18 | 134 | 1.6 | 4.8 | 0.00 | 0.00 | 0.00 | 67 | 988.4 |
| 20260905023544 | 18 | 98 | 3.2 | 11.3 | 0.00 | 0.00 | 0.00 | 67 | 988.2 |